createdAt,value
2022-12-04T00:02:01.876Z,102.53
2022-12-04T00:04:30.652Z,100.63
2022-12-04T00:06:59.305Z,99.07
2022-12-04T00:09:27.848Z,102.50
2022-12-04T00:11:56.411Z,99.95
2022-12-04T00:14:26.360Z,99.45
2022-12-04T00:16:55.008Z,103.32
2022-12-04T00:19:23.539Z,99.75
2022-12-04T00:21:52.312Z,100.93
2022-12-04T00:24:20.828Z,104.68
2022-12-04T00:26:49.320Z,101.63
2022-12-04T00:29:18.190Z,101.72
2022-12-04T00:31:48.083Z,100.50
2022-12-04T00:34:16.794Z,105.97
2022-12-04T00:36:45.414Z,108.88
2022-12-04T00:39:13.902Z,110.95
2022-12-04T00:41:42.432Z,106.97
2022-12-04T00:44:10.915Z,107.82
2022-12-04T00:46:39.439Z,107.78
2022-12-04T00:49:09.299Z,115.22
2022-12-04T00:51:37.815Z,114.55
2022-12-04T00:54:06.347Z,114.38
2022-12-04T00:56:34.849Z,112.78
2022-12-04T00:59:03.603Z,107.20
2022-12-04T01:01:32.541Z,108.97
2022-12-04T01:04:01.474Z,112.32
2022-12-04T01:06:34.534Z,119.10
2022-12-04T01:09:05.979Z,121.50
2022-12-04T01:11:35.041Z,115.95
2022-12-04T01:14:03.747Z,114.65
2022-12-04T01:16:34.892Z,130.18
2022-12-04T01:19:03.888Z,119.97
2022-12-04T01:21:33.854Z,117.88
2022-12-04T01:24:02.409Z,118.43
2022-12-04T01:26:31.367Z,113.10
2022-12-04T01:29:00.187Z,114.50
2022-12-04T01:31:28.834Z,118.70
2022-12-04T01:33:57.445Z,118.63
2022-12-04T01:36:30.116Z,125.32
2022-12-04T01:39:03.118Z,125.60
2022-12-04T01:41:33.155Z,138.32
2022-12-04T01:44:19.148Z,114.07
2022-12-04T01:46:51.455Z,123.68
2022-12-04T01:49:24.882Z,115.05
2022-12-04T01:51:55.762Z,116.85
2022-12-04T01:54:29.938Z,117.13
2022-12-04T01:57:02.967Z,112.95
2022-12-04T01:59:37.241Z,125.10
2022-12-04T02:02:08.866Z,122.03
2022-12-04T02:04:38.716Z,125.65
2022-12-04T02:07:07.335Z,127.45
2022-12-04T02:09:39.800Z,111.82
2022-12-04T02:12:16.493Z,115.50
2022-12-04T02:14:53.436Z,126.65
2022-12-04T02:17:28.892Z,130.80
2022-12-04T02:20:13.887Z,123.00
2022-12-04T02:23:15.556Z,122.10
2022-12-04T02:25:54.512Z,128.32
2022-12-04T02:28:27.289Z,132.57
2022-12-04T02:31:00.833Z,122.78
2022-12-04T02:33:36.205Z,133.70
2022-12-04T02:36:08.115Z,122.55
2022-12-04T02:38:41.772Z,130.52
2022-12-04T02:41:15.633Z,124.13
2022-12-04T02:43:48.522Z,136.50
2022-12-04T02:46:22.216Z,127.85
2022-12-04T02:48:54.600Z,129.70
2022-12-04T02:51:27.264Z,130.05
2022-12-04T02:53:59.753Z,139.50
2022-12-04T02:56:31.343Z,122.85
2022-12-04T02:59:05.623Z,136.00
2022-12-04T03:01:37.675Z,135.63
2022-12-04T03:04:13.191Z,135.57
2022-12-04T03:06:45.307Z,139.13
2022-12-04T03:09:18.787Z,129.25
2022-12-04T03:11:53.696Z,134.33
2022-12-04T03:14:27.384Z,132.25
2022-12-04T03:17:02.568Z,132.27
2022-12-04T03:19:38.398Z,122.75
2022-12-04T03:22:11.673Z,139.68
2022-12-04T03:24:44.880Z,133.82
2022-12-04T03:27:17.947Z,129.27
2022-12-04T03:29:55.050Z,132.82
2022-12-04T03:32:28.766Z,122.35
2022-12-04T03:35:00.521Z,122.68
2022-12-04T03:37:37.208Z,128.15
2022-12-04T03:40:12.759Z,129.95
2022-12-04T03:42:45.784Z,118.85
2022-12-04T03:45:23.184Z,118.75
2022-12-04T03:47:58.310Z,129.82
2022-12-04T03:50:35.217Z,120.60
2022-12-04T03:53:10.094Z,112.97
2022-12-04T03:55:46.384Z,117.75
2022-12-04T03:58:20.938Z,119.57
2022-12-04T04:00:53.887Z,127.88
2022-12-04T04:03:26.271Z,125.18
2022-12-04T04:06:05.770Z,113.88
2022-12-04T04:08:37.500Z,121.15
2022-12-04T04:11:14.206Z,116.40
2022-12-04T04:14:05.104Z,113.45
2022-12-04T04:16:55.485Z,123.18
2022-12-04T04:19:44.483Z,119.50
2022-12-04T04:22:32.152Z,120.32
2022-12-04T04:25:06.329Z,117.03
2022-12-04T04:27:34.883Z,124.03
2022-12-04T04:30:03.711Z,118.07
2022-12-04T04:32:37.879Z,112.63
2022-12-04T04:35:15.214Z,109.95
2022-12-04T04:37:54.923Z,106.20
2022-12-04T04:40:32.347Z,113.85
2022-12-04T04:43:08.948Z,119.53
2022-12-04T04:45:39.901Z,108.68
2022-12-04T04:48:15.079Z,116.88
2022-12-04T04:50:45.478Z,114.70
2022-12-04T04:53:17.230Z,114.07
2022-12-04T04:55:47.059Z,102.80
2022-12-04T04:58:18.840Z,105.88
2022-12-04T05:00:57.925Z,114.35
2022-12-04T05:03:28.607Z,105.60
2022-12-04T05:05:57.636Z,116.95
2022-12-04T05:08:26.192Z,103.35
2022-12-04T05:10:54.903Z,112.57
2022-12-04T05:13:23.771Z,111.50
2022-12-04T05:15:58.604Z,111.70
2022-12-04T05:18:29.220Z,105.55
2022-12-04T05:20:56.999Z,108.47
2022-12-04T05:23:25.921Z,119.72
2022-12-04T05:26:00.899Z,117.55
2022-12-04T05:28:30.048Z,109.03
2022-12-04T05:30:59.182Z,115.30
2022-12-04T05:33:29.132Z,108.35
2022-12-04T05:35:59.017Z,117.25
2022-12-04T05:38:27.794Z,114.00
2022-12-04T05:40:58.690Z,108.05
2022-12-04T05:43:27.283Z,114.72
2022-12-04T05:45:55.892Z,101.65
2022-12-04T05:48:24.433Z,109.32
2022-12-04T05:50:54.331Z,106.30
2022-12-04T05:53:22.996Z,106.25
2022-12-04T05:56:02.454Z,112.45
2022-12-04T05:58:31.189Z,105.40
2022-12-04T06:00:59.664Z,97.93
2022-12-04T06:03:28.460Z,103.20
2022-12-04T06:05:58.386Z,114.53
2022-12-04T06:08:26.887Z,100.32
2022-12-04T06:10:55.415Z,99.50
2022-12-04T06:13:23.955Z,104.30
2022-12-04T06:15:52.467Z,99.60
2022-12-04T06:18:20.997Z,109.25
2022-12-04T06:20:49.561Z,107.30
2022-12-04T06:23:19.458Z,100.28
2022-12-04T06:25:47.967Z,108.88
2022-12-04T06:28:16.560Z,108.82
2022-12-04T06:30:45.092Z,103.43
2022-12-04T06:33:13.560Z,104.55
2022-12-04T06:35:42.054Z,108.80
2022-12-04T06:38:10.574Z,113.35
2022-12-04T06:40:42.175Z,103.95
2022-12-04T06:43:10.707Z,106.63
2022-12-04T06:45:39.234Z,111.43
2022-12-04T06:48:07.988Z,109.47
2022-12-04T06:50:36.613Z,108.15
2022-12-04T06:53:08.491Z,111.63
2022-12-04T06:55:37.294Z,110.85
2022-12-04T06:58:07.560Z,107.68
2022-12-04T07:00:36.096Z,109.00
2022-12-04T07:03:04.966Z,107.70
2022-12-04T07:05:33.468Z,107.60
2022-12-04T07:08:02.016Z,115.20
2022-12-04T07:10:30.614Z,104.07
2022-12-04T07:12:59.171Z,109.05
2022-12-04T07:15:29.060Z,111.47
2022-12-04T07:17:58.230Z,100.32
2022-12-04T07:20:26.890Z,103.18
2022-12-04T07:22:55.567Z,102.68
2022-12-04T07:25:24.438Z,98.60
2022-12-04T07:27:52.995Z,108.68
2022-12-04T07:30:21.809Z,108.38
2022-12-04T07:32:51.658Z,107.18
2022-12-04T07:35:20.260Z,107.65
2022-12-04T07:37:48.899Z,115.95
2022-12-04T07:40:17.622Z,96.85
2022-12-04T07:42:46.158Z,111.65
2022-12-04T07:45:14.802Z,117.20
2022-12-04T07:47:43.325Z,105.63
2022-12-04T07:50:13.317Z,106.75
2022-12-04T07:52:41.860Z,109.85
2022-12-04T07:55:10.822Z,118.90
2022-12-04T07:57:39.338Z,110.97
2022-12-04T08:00:09.139Z,106.32
2022-12-04T08:02:37.848Z,116.15
2022-12-04T08:05:06.857Z,105.32
2022-12-04T08:07:37.022Z,112.68
2022-12-04T08:10:06.552Z,100.20
2022-12-04T08:12:35.157Z,105.95
2022-12-04T08:15:03.656Z,109.65
2022-12-04T08:17:32.237Z,110.60
2022-12-04T08:20:01.359Z,106.32
2022-12-04T08:22:29.906Z,113.35
2022-12-04T08:24:59.899Z,109.97
2022-12-04T08:27:28.399Z,101.90
2022-12-04T08:29:57.467Z,106.05
2022-12-04T08:32:26.295Z,104.03
2022-12-04T08:34:56.020Z,110.57
2022-12-04T08:37:24.655Z,106.05
2022-12-04T08:39:53.597Z,96.43
2022-12-04T08:42:23.789Z,101.00
2022-12-04T08:44:52.315Z,113.95
2022-12-04T08:47:20.913Z,102.60
2022-12-04T08:49:49.487Z,111.93
2022-12-04T08:52:18.134Z,100.20
2022-12-04T08:54:46.939Z,105.20
2022-12-04T08:57:15.467Z,107.40
2022-12-04T08:59:45.415Z,112.60
2022-12-04T09:02:14.126Z,110.35
2022-12-04T09:04:43.081Z,106.43
2022-12-04T09:07:11.631Z,91.93
2022-12-04T09:09:44.932Z,99.88
2022-12-04T09:12:16.558Z,97.97
2022-12-04T09:14:46.499Z,97.93
2022-12-04T09:17:15.037Z,98.95
2022-12-04T09:19:43.840Z,96.47
2022-12-04T09:22:12.309Z,104.20
2022-12-04T09:24:40.794Z,94.95
2022-12-04T09:27:14.531Z,95.88
2022-12-04T09:29:43.574Z,96.28
2022-12-04T09:32:13.704Z,93.95
2022-12-04T09:34:42.236Z,106.95
2022-12-04T09:37:10.794Z,96.47
2022-12-04T09:39:39.356Z,94.90
2022-12-04T09:42:32.127Z,93.85
2022-12-04T09:45:07.096Z,88.55
2022-12-04T09:47:42.847Z,95.50
2022-12-04T09:50:16.140Z,90.13
2022-12-04T09:52:56.155Z,103.03
2022-12-04T09:55:28.908Z,92.55
2022-12-04T09:58:02.423Z,101.45
2022-12-04T10:00:33.944Z,102.85
2022-12-04T10:03:06.576Z,104.45
2022-12-04T10:05:46.784Z,92.70
2022-12-04T10:08:23.091Z,97.47
2022-12-04T10:11:02.600Z,88.82
2022-12-04T10:14:15.755Z,101.45
2022-12-04T10:16:57.265Z,94.53
2022-12-04T10:19:36.267Z,84.78
2022-12-04T10:22:13.250Z,89.38
2022-12-04T10:24:45.286Z,85.88
2022-12-04T10:27:25.416Z,101.40
2022-12-04T10:29:58.599Z,84.97
2022-12-04T10:32:31.382Z,96.55
2022-12-04T10:35:21.239Z,95.07
2022-12-04T10:37:55.323Z,93.55
2022-12-04T10:40:29.733Z,85.70
2022-12-04T10:45:30.278Z,88.45
2022-12-04T10:47:59.580Z,81.95
2022-12-04T10:50:29.687Z,92.88
2022-12-04T10:52:58.174Z,93.13
2022-12-04T10:55:30.935Z,89.57
2022-12-04T10:57:59.585Z,88.20
2022-12-04T11:00:30.751Z,89.15
2022-12-04T11:03:02.340Z,95.50
2022-12-04T11:05:34.755Z,95.78
2022-12-04T11:08:07.605Z,87.93
2022-12-04T11:10:39.070Z,84.25
2022-12-04T11:13:15.970Z,92.07
2022-12-04T11:15:45.757Z,90.28
2022-12-04T11:18:19.241Z,85.97
2022-12-04T11:20:55.762Z,77.05
2022-12-04T11:23:24.942Z,78.63
2022-12-04T11:25:59.370Z,82.45
2022-12-04T11:28:41.556Z,76.97
2022-12-04T11:31:17.461Z,80.45
2022-12-04T11:33:49.766Z,82.25
2022-12-04T11:36:24.644Z,77.25
2022-12-04T11:38:55.604Z,84.13
2022-12-04T11:41:29.635Z,85.57
2022-12-04T11:44:00.733Z,87.60
2022-12-04T11:46:31.865Z,75.68
2022-12-04T11:49:00.518Z,75.32
2022-12-04T11:51:44.515Z,85.13
2022-12-04T11:54:27.723Z,78.63
2022-12-04T11:57:05.010Z,82.18
2022-12-04T11:59:48.914Z,79.07
2022-12-04T12:02:34.714Z,73.93
2022-12-04T12:05:30.614Z,76.22
2022-12-04T12:08:09.554Z,86.97
2022-12-04T12:10:49.324Z,78.40
2022-12-04T12:13:28.263Z,78.07
2022-12-04T12:16:05.526Z,85.78
2022-12-04T12:19:04.840Z,72.85
2022-12-04T12:21:41.387Z,77.00
2022-12-04T12:24:25.806Z,82.47
2022-12-04T12:27:06.588Z,87.78
2022-12-04T12:29:55.510Z,82.85
2022-12-04T12:32:47.237Z,106.03
2022-12-04T12:35:23.346Z,82.97
2022-12-04T12:37:54.681Z,90.05
2022-12-04T12:40:31.495Z,82.63
2022-12-04T12:43:06.289Z,77.22
2022-12-04T12:45:42.712Z,78.07
2022-12-04T12:48:24.275Z,82.28
2022-12-04T12:51:28.099Z,74.53
2022-12-04T12:53:51.307Z,80.20
2022-12-04T12:56:31.335Z,80.82
2022-12-04T12:59:04.367Z,81.35
2022-12-04T13:01:43.817Z,77.00
2022-12-04T13:04:18.596Z,89.88
2022-12-04T13:06:49.968Z,81.68
2022-12-04T13:09:25.555Z,77.72
2022-12-04T13:12:00.411Z,80.25
2022-12-04T13:14:28.915Z,80.45
2022-12-04T13:17:03.019Z,82.85
2022-12-04T13:19:36.187Z,79.07
2022-12-04T13:22:15.807Z,82.57
2022-12-04T13:25:20.681Z,83.10
2022-12-04T13:28:04.594Z,87.88
2022-12-04T13:30:43.518Z,84.43
2022-12-04T13:33:56.612Z,83.20
2022-12-04T13:36:39.143Z,76.93
2022-12-04T13:39:49.295Z,91.00
2022-12-04T13:42:25.063Z,83.25
2022-12-04T13:44:57.628Z,83.60
2022-12-04T13:47:28.365Z,84.13
2022-12-04T13:50:26.245Z,90.20
2022-12-04T13:52:54.962Z,83.47
2022-12-04T13:55:30.120Z,87.15
2022-12-04T13:58:00.903Z,100.72
2022-12-04T14:00:33.550Z,89.03
2022-12-04T14:03:06.044Z,85.90
2022-12-04T14:05:42.701Z,94.22
2022-12-04T14:08:25.537Z,100.20
2022-12-04T14:11:03.624Z,85.28
2022-12-04T14:13:43.898Z,83.30
2022-12-04T14:16:22.926Z,89.88
2022-12-04T14:18:54.892Z,103.07
2022-12-04T14:21:24.097Z,87.45
2022-12-04T14:23:53.939Z,96.30
2022-12-04T14:26:37.399Z,89.50
2022-12-04T14:29:34.720Z,95.50
2022-12-04T14:32:14.979Z,93.18
2022-12-04T14:34:44.125Z,104.60
2022-12-04T14:37:31.970Z,92.18
2022-12-04T14:40:01.881Z,100.70
2022-12-04T14:42:37.843Z,97.65
2022-12-04T14:45:21.428Z,92.10
2022-12-04T14:48:07.363Z,91.68
2022-12-04T14:50:43.516Z,97.80
2022-12-04T14:53:24.127Z,94.65
2022-12-04T14:56:04.619Z,103.50
2022-12-04T14:58:38.948Z,115.72
2022-12-04T15:01:22.705Z,98.82
2022-12-04T15:03:58.050Z,110.57
2022-12-04T15:06:28.551Z,106.13
2022-12-04T15:09:20.322Z,104.60
2022-12-04T15:12:09.061Z,103.40
2022-12-04T15:14:42.135Z,106.35
2022-12-04T15:17:11.251Z,105.47
2022-12-04T15:19:41.458Z,110.05
2022-12-04T15:22:19.449Z,108.05
2022-12-04T15:24:48.106Z,115.95
2022-12-04T15:27:19.190Z,108.70
2022-12-04T15:29:51.465Z,112.85
2022-12-04T15:32:23.940Z,121.32
2022-12-04T15:34:56.942Z,107.97
2022-12-04T15:37:28.524Z,117.85
2022-12-04T15:39:58.631Z,106.78
2022-12-04T15:42:30.335Z,111.97
2022-12-04T15:45:01.243Z,113.43
2022-12-04T15:47:32.932Z,116.25
2022-12-04T15:50:11.543Z,114.18
2022-12-04T15:52:50.328Z,131.25
2022-12-04T15:55:20.104Z,130.70
2022-12-04T15:57:53.662Z,134.10
2022-12-04T16:00:28.305Z,129.60
2022-12-04T16:02:58.355Z,124.13
2022-12-04T16:05:35.591Z,119.72
2022-12-04T16:08:23.894Z,141.48
2022-12-04T16:11:01.071Z,137.32
2022-12-04T16:13:32.823Z,143.20
2022-12-04T16:16:02.677Z,137.52
2022-12-04T16:18:31.222Z,141.18
2022-12-04T16:21:01.374Z,142.45
2022-12-04T16:23:29.855Z,146.88
2022-12-04T16:25:58.364Z,140.00
2022-12-04T16:28:26.877Z,142.45
2022-12-04T16:30:55.534Z,148.35
2022-12-04T16:33:24.206Z,166.93
2022-12-04T16:35:52.675Z,146.02
2022-12-04T16:38:22.656Z,149.95
2022-12-04T16:40:51.130Z,137.15
2022-12-04T16:43:19.876Z,160.75
2022-12-04T16:45:52.246Z,156.63
2022-12-04T16:48:21.292Z,145.68
2022-12-04T16:50:49.787Z,150.05
2022-12-04T16:53:19.743Z,163.02
2022-12-04T16:55:51.204Z,166.25
2022-12-04T16:58:20.940Z,154.15
2022-12-04T17:00:53.144Z,165.18
2022-12-04T17:03:26.536Z,149.82
2022-12-04T17:05:55.319Z,150.40
2022-12-04T17:08:24.183Z,164.27
2022-12-04T17:10:54.615Z,156.88
2022-12-04T17:13:23.691Z,157.57
2022-12-04T17:15:52.255Z,169.77
2022-12-04T17:18:21.488Z,164.75
2022-12-04T17:20:50.484Z,166.32
2022-12-04T17:23:19.125Z,162.27
2022-12-04T17:25:47.949Z,161.93
2022-12-04T17:28:19.297Z,171.80
2022-12-04T17:30:48.190Z,158.93
2022-12-04T17:33:16.677Z,158.95
2022-12-04T17:35:45.219Z,154.95
2022-12-04T17:38:13.742Z,159.80
2022-12-04T17:40:42.265Z,162.35
2022-12-04T17:43:10.848Z,151.75
2022-12-04T17:45:42.274Z,170.95
2022-12-04T17:48:10.779Z,157.73
2022-12-04T17:50:39.312Z,149.57
2022-12-04T17:53:08.004Z,157.25
2022-12-04T17:55:36.531Z,158.15
2022-12-04T17:58:05.282Z,161.10
2022-12-04T18:00:33.911Z,153.98
2022-12-04T18:03:04.245Z,154.73
2022-12-04T18:05:33.026Z,157.68
2022-12-04T18:08:01.534Z,163.50
2022-12-04T18:10:30.088Z,157.48
2022-12-04T18:12:58.595Z,162.43
2022-12-04T18:15:27.079Z,162.98
2022-12-04T18:17:55.803Z,160.05
2022-12-04T18:20:25.651Z,166.88
2022-12-04T18:22:54.123Z,153.63
2022-12-04T18:25:22.665Z,151.40
2022-12-04T18:27:51.161Z,150.20
2022-12-04T18:30:19.790Z,159.65
2022-12-04T18:32:48.324Z,155.70
2022-12-04T18:35:17.012Z,147.65
2022-12-04T18:37:47.091Z,160.55
2022-12-04T18:40:15.986Z,158.10
2022-12-04T18:42:44.606Z,148.35
2022-12-04T18:45:13.238Z,166.70
2022-12-04T18:47:41.710Z,153.02
2022-12-04T18:50:11.145Z,156.38
2022-12-04T18:52:40.527Z,151.35
2022-12-04T18:55:11.515Z,144.40
2022-12-04T18:57:40.367Z,163.13
2022-12-04T19:00:09.927Z,152.00
2022-12-04T19:02:38.843Z,156.48
2022-12-04T19:05:07.683Z,163.55
2022-12-04T19:07:36.499Z,162.05
2022-12-04T19:10:12.758Z,151.82
2022-12-04T19:12:42.942Z,147.27
2022-12-04T19:15:12.304Z,145.70
2022-12-04T19:17:40.791Z,155.40
2022-12-04T19:20:10.683Z,159.00
2022-12-04T19:22:39.470Z,143.52
2022-12-04T19:25:13.030Z,154.23
2022-12-04T19:27:43.064Z,141.43
2022-12-04T19:30:13.924Z,145.82
2022-12-04T19:32:43.282Z,129.57
2022-12-04T19:35:11.815Z,132.27
2022-12-04T19:37:42.114Z,135.88
2022-12-04T19:40:13.748Z,133.00
2022-12-04T19:42:43.732Z,128.10
2022-12-04T19:45:12.496Z,127.57
2022-12-04T19:47:40.996Z,129.85
2022-12-04T19:50:10.376Z,127.07
2022-12-04T19:52:38.891Z,128.13
2022-12-04T19:55:08.991Z,131.82
2022-12-04T19:57:39.687Z,132.40
2022-12-04T20:00:11.000Z,125.13
2022-12-04T20:02:42.185Z,120.38
2022-12-04T20:05:10.929Z,140.88
2022-12-04T20:07:41.103Z,132.52
2022-12-04T20:10:10.801Z,134.43
2022-12-04T20:12:39.323Z,142.63
2022-12-04T20:15:09.955Z,153.55
2022-12-04T20:17:38.445Z,134.38
2022-12-04T20:20:09.274Z,137.75
2022-12-04T20:22:37.949Z,131.63
2022-12-04T20:25:11.711Z,140.90
2022-12-04T20:27:40.437Z,129.27
2022-12-04T20:30:12.284Z,134.40
2022-12-04T20:32:57.801Z,130.57
2022-12-04T20:36:25.740Z,134.20
2022-12-04T20:39:06.978Z,127.78
2022-12-04T20:41:51.377Z,141.40
2022-12-04T20:44:40.542Z,133.55
2022-12-04T20:47:47.486Z,135.48
2022-12-04T20:50:32.206Z,141.95
2022-12-04T20:53:25.244Z,143.18
2022-12-04T20:56:29.017Z,146.57
2022-12-04T20:59:09.068Z,144.70
2022-12-04T21:01:51.902Z,125.38
2022-12-04T21:04:32.181Z,137.32
2022-12-04T21:07:02.609Z,134.68
2022-12-04T21:09:51.525Z,119.97
2022-12-04T21:12:46.471Z,127.90
2022-12-04T21:15:49.064Z,128.55
2022-12-04T21:18:27.978Z,125.63
2022-12-04T21:21:04.610Z,126.20
2022-12-04T21:23:57.983Z,122.55
2022-12-04T21:26:34.691Z,161.88
2022-12-04T21:29:10.034Z,127.93
2022-12-04T21:31:41.057Z,123.07
2022-12-04T21:34:19.594Z,124.35
2022-12-04T21:36:57.209Z,137.68
2022-12-04T21:39:32.428Z,136.40
2022-12-04T21:42:25.248Z,138.43
2022-12-04T21:45:02.773Z,130.32
2022-12-04T21:47:40.853Z,139.07
2022-12-04T21:50:23.562Z,114.75
2022-12-04T21:53:07.547Z,133.27
2022-12-04T21:55:40.035Z,131.15
2022-12-04T21:58:08.547Z,128.75
2022-12-04T22:00:37.030Z,128.85
2022-12-04T22:03:06.198Z,138.90
2022-12-04T22:05:34.889Z,134.07
2022-12-04T22:08:04.967Z,141.20
2022-12-04T22:10:33.671Z,133.43
2022-12-04T22:13:02.339Z,138.40
2022-12-04T22:15:30.814Z,136.68
2022-12-04T22:17:59.281Z,137.70
2022-12-04T22:20:27.794Z,131.40
2022-12-04T22:22:56.301Z,133.65
2022-12-04T22:25:26.363Z,119.45
2022-12-04T22:27:54.872Z,127.80
2022-12-04T22:30:23.577Z,134.45
2022-12-04T22:32:52.403Z,130.70
2022-12-04T22:35:20.987Z,131.93
2022-12-04T22:37:49.524Z,134.80
2022-12-04T22:40:18.291Z,145.32
2022-12-04T22:42:48.204Z,148.10
2022-12-04T22:45:16.794Z,139.30
2022-12-04T22:47:45.593Z,136.45
2022-12-04T22:50:14.125Z,142.50
2022-12-04T22:52:42.646Z,136.52
2022-12-04T22:55:11.230Z,143.98
2022-12-04T22:57:39.723Z,133.07
2022-12-04T23:00:11.607Z,129.23
2022-12-04T23:02:40.185Z,130.98
2022-12-04T23:05:08.845Z,130.55
2022-12-04T23:07:38.725Z,136.90
2022-12-04T23:10:08.372Z,143.60
2022-12-04T23:12:36.855Z,140.18
2022-12-04T23:15:06.100Z,132.55
2022-12-04T23:17:36.008Z,125.60
2022-12-04T23:20:05.170Z,145.15
2022-12-04T23:22:33.680Z,127.97
2022-12-04T23:25:02.315Z,137.52
2022-12-04T23:27:32.061Z,143.00
2022-12-04T23:30:00.570Z,138.10
2022-12-04T23:32:29.396Z,129.35
2022-12-04T23:34:59.271Z,138.60
2022-12-04T23:37:27.891Z,142.70
2022-12-04T23:39:56.696Z,143.85
2022-12-04T23:42:25.471Z,135.10
2022-12-04T23:44:54.012Z,133.32
2022-12-04T23:47:22.566Z,148.35
2022-12-04T23:49:51.111Z,132.43
2022-12-04T23:52:21.025Z,123.80
2022-12-04T23:54:49.543Z,132.80
2022-12-04T23:57:18.014Z,130.10
2022-12-04T23:59:46.784Z,143.02
